createdAt,value
2022-07-28T00:00:30.993Z,0.00
2022-07-28T00:01:31.349Z,0.00
2022-07-28T00:02:31.648Z,0.00
2022-07-28T00:03:31.894Z,0.00
2022-07-28T00:04:32.213Z,0.00
2022-07-28T00:05:32.543Z,0.00
2022-07-28T00:06:32.836Z,0.00
2022-07-28T00:07:33.157Z,0.00
2022-07-28T00:08:33.484Z,0.00
2022-07-28T00:09:33.815Z,0.00
2022-07-28T00:10:34.156Z,0.00
2022-07-28T00:11:34.487Z,0.00
2022-07-28T00:12:35.786Z,0.00
2022-07-28T00:13:35.037Z,0.00
2022-07-28T00:14:35.380Z,0.00
2022-07-28T00:15:35.709Z,0.00
2022-07-28T00:16:36.101Z,0.00
2022-07-28T00:17:36.313Z,0.00
2022-07-28T00:18:36.628Z,0.00
2022-07-28T00:19:36.946Z,0.00
2022-07-28T00:20:37.281Z,0.00
2022-07-28T00:21:37.599Z,0.00
2022-07-28T00:22:37.928Z,0.00
2022-07-28T00:23:38.649Z,0.00
2022-07-28T00:24:38.519Z,0.00
2022-07-28T00:25:38.853Z,0.00
2022-07-28T00:26:39.171Z,0.00
2022-07-28T00:27:39.502Z,0.00
2022-07-28T00:28:39.821Z,0.00
2022-07-28T00:29:42.536Z,0.00
2022-07-28T00:30:41.462Z,0.00
2022-07-28T00:31:40.736Z,0.00
2022-07-28T00:32:41.012Z,0.00
2022-07-28T00:33:41.333Z,0.00
2022-07-28T00:34:42.502Z,0.00
2022-07-28T00:35:42.012Z,0.00
2022-07-28T00:36:43.313Z,0.00
2022-07-28T00:37:42.602Z,0.00
2022-07-28T00:38:43.938Z,0.00
2022-07-28T00:39:43.188Z,0.00
2022-07-28T00:40:43.525Z,0.00
2022-07-28T00:41:43.843Z,0.00
2022-07-28T00:42:44.176Z,0.00
2022-07-28T00:43:44.496Z,0.00
2022-07-28T00:44:44.825Z,0.00
2022-07-28T00:45:45.159Z,0.00
2022-07-28T00:46:45.690Z,0.00
2022-07-28T00:47:45.756Z,0.00
2022-07-28T00:48:46.171Z,0.00
2022-07-28T00:49:46.386Z,0.00
2022-07-28T00:50:46.718Z,0.00
2022-07-28T00:51:47.039Z,0.00
2022-07-28T00:52:47.368Z,0.00
2022-07-28T00:53:47.691Z,0.00
2022-07-28T00:54:48.028Z,0.00
2022-07-28T00:56:03.388Z,0.00
2022-07-28T00:56:49.672Z,0.00
2022-07-28T00:57:48.940Z,0.00
2022-07-28T00:58:49.283Z,0.00
2022-07-28T00:59:49.603Z,0.00
2022-07-28T01:00:49.945Z,0.00
2022-07-28T01:01:50.335Z,0.00
2022-07-28T01:02:50.726Z,0.00
2022-07-28T01:03:50.820Z,0.00
2022-07-28T01:04:51.153Z,0.00
2022-07-28T01:05:51.496Z,0.00
2022-07-28T01:06:51.824Z,0.00
2022-07-28T01:07:52.084Z,0.00
2022-07-28T01:08:52.414Z,0.00
2022-07-28T01:09:52.733Z,0.00
2022-07-28T01:10:53.079Z,0.00
2022-07-28T01:11:53.407Z,0.00
2022-07-28T01:12:53.735Z,0.00
2022-07-28T01:13:54.076Z,0.00
2022-07-28T01:14:54.404Z,0.00
2022-07-28T01:15:54.800Z,0.00
2022-07-28T01:16:55.036Z,0.00
2022-07-28T01:17:55.368Z,0.00
2022-07-28T01:18:55.709Z,0.00
2022-07-28T01:19:56.037Z,0.00
2022-07-28T01:20:56.392Z,0.00
2022-07-28T01:21:56.691Z,0.00
2022-07-28T01:22:57.030Z,0.00
2022-07-28T01:23:57.338Z,0.00
2022-07-28T01:24:57.668Z,0.00
2022-07-28T01:25:58.009Z,0.00
2022-07-28T01:26:58.346Z,0.00
2022-07-28T01:27:58.668Z,0.00
2022-07-28T01:28:59.045Z,0.00
2022-07-28T01:29:59.252Z,0.00
2022-07-28T01:30:59.649Z,0.00
2022-07-28T01:31:59.896Z,0.00
2022-07-28T01:33:00.220Z,0.00
2022-07-28T01:34:00.541Z,0.00
2022-07-28T01:35:00.873Z,0.00
2022-07-28T01:36:01.229Z,0.00
2022-07-28T01:37:01.558Z,0.00
2022-07-28T01:38:01.884Z,0.00
2022-07-28T01:39:02.212Z,0.00
2022-07-28T01:40:02.527Z,0.00
2022-07-28T01:41:02.884Z,0.00
2022-07-28T01:42:03.210Z,0.00
2022-07-28T01:43:03.537Z,0.00
2022-07-28T01:44:03.854Z,0.00
2022-07-28T01:45:04.197Z,0.00
2022-07-28T01:46:04.590Z,0.00
2022-07-28T01:47:04.805Z,0.00
2022-07-28T01:48:05.125Z,0.00
2022-07-28T01:49:05.487Z,0.00
2022-07-28T01:50:05.691Z,0.00
2022-07-28T01:51:06.039Z,0.00
2022-07-28T01:52:06.358Z,0.00
2022-07-28T01:53:06.703Z,0.00
2022-07-28T01:54:07.027Z,0.00
2022-07-28T01:55:07.371Z,0.00
2022-07-28T01:56:07.699Z,0.00
2022-07-28T01:57:08.038Z,0.00
2022-07-28T01:58:08.337Z,0.00
2022-07-28T01:59:08.652Z,0.00
2022-07-28T02:00:08.987Z,0.00
2022-07-28T02:01:09.380Z,0.00
2022-07-28T02:02:09.641Z,0.00
2022-07-28T02:03:09.861Z,0.00
2022-07-28T02:04:10.479Z,0.00
2022-07-28T02:05:10.552Z,0.00
2022-07-28T02:06:10.794Z,0.00
2022-07-28T02:07:11.150Z,0.00
2022-07-28T02:08:11.359Z,0.00
2022-07-28T02:09:11.716Z,0.00
2022-07-28T02:10:11.923Z,0.00
2022-07-28T02:11:12.263Z,0.00
2022-07-28T02:12:12.590Z,0.00
2022-07-28T02:13:12.933Z,0.00
2022-07-28T02:14:13.589Z,0.00
2022-07-28T02:15:13.505Z,0.00
2022-07-28T02:16:13.905Z,0.00
2022-07-28T02:17:14.159Z,0.00
2022-07-28T02:18:14.476Z,0.00
2022-07-28T02:19:14.815Z,0.00
2022-07-28T02:20:15.151Z,0.00
2022-07-28T02:21:15.479Z,0.00
2022-07-28T02:22:15.795Z,0.00
2022-07-28T02:23:16.135Z,0.00
2022-07-28T02:24:17.129Z,0.00
2022-07-28T02:25:16.694Z,0.00
2022-07-28T02:26:17.921Z,0.00
2022-07-28T02:27:17.325Z,0.00
2022-07-28T02:28:17.637Z,0.00
2022-07-28T02:29:40.419Z,0.00
2022-07-28T02:30:19.299Z,0.00
2022-07-28T02:31:18.674Z,0.00
2022-07-28T02:32:28.153Z,0.00
2022-07-28T02:33:33.082Z,4.00
2022-07-28T02:34:22.275Z,4.00
2022-07-28T02:35:19.892Z,0.00
2022-07-28T02:36:20.154Z,0.00
2022-07-28T02:37:28.156Z,4.00
2022-07-28T02:38:20.747Z,4.00
2022-07-28T02:39:21.109Z,0.00
2022-07-28T02:40:21.341Z,4.00
2022-07-28T02:41:21.710Z,4.00
2022-07-28T02:42:21.949Z,4.00
2022-07-28T02:43:22.302Z,4.00
2022-07-28T02:44:22.656Z,4.00
2022-07-28T02:45:22.734Z,4.00
2022-07-28T02:46:23.126Z,4.00
2022-07-28T02:47:23.358Z,8.00
2022-07-28T02:48:23.735Z,8.00
2022-07-28T02:49:24.019Z,12.00
2022-07-28T02:50:24.346Z,12.00
2022-07-28T02:51:24.586Z,16.00
2022-07-28T02:52:24.848Z,16.00
2022-07-28T02:53:25.062Z,20.00
2022-07-28T02:54:25.758Z,20.00
2022-07-28T02:55:25.714Z,24.00
2022-07-28T02:56:25.973Z,24.00
2022-07-28T02:57:26.242Z,32.00
2022-07-28T02:58:26.490Z,32.00
2022-07-28T02:59:26.741Z,36.00
2022-07-28T03:00:26.979Z,40.00
2022-07-28T03:01:27.378Z,48.00
2022-07-28T03:02:27.571Z,52.00
2022-07-28T03:03:27.983Z,56.00
2022-07-28T03:04:28.204Z,60.00
2022-07-28T03:05:28.599Z,68.00
2022-07-28T03:06:29.147Z,76.00
2022-07-28T03:07:29.083Z,84.00
2022-07-28T03:08:29.372Z,92.00
2022-07-28T03:09:29.603Z,100.00
2022-07-28T03:10:33.427Z,108.00
2022-07-28T03:11:30.132Z,116.00
2022-07-28T03:12:30.398Z,128.00
2022-07-28T03:13:30.670Z,136.00
2022-07-28T03:14:30.916Z,148.00
2022-07-28T03:15:31.331Z,160.00
2022-07-28T03:16:31.467Z,168.00
2022-07-28T03:17:31.691Z,180.00
2022-07-28T03:18:31.965Z,196.00
2022-07-28T03:19:32.230Z,208.00
2022-07-28T03:20:32.492Z,224.00
2022-07-28T03:21:32.762Z,240.00
2022-07-28T03:22:33.022Z,256.00
2022-07-28T03:23:33.292Z,268.00
2022-07-28T03:24:33.542Z,284.00
2022-07-28T03:25:33.785Z,304.00
2022-07-28T03:26:34.042Z,320.00
2022-07-28T03:27:34.304Z,336.00
2022-07-28T03:28:34.683Z,360.00
2022-07-28T03:29:34.783Z,380.00
2022-07-28T03:30:35.126Z,400.00
2022-07-28T03:31:35.369Z,420.00
2022-07-28T03:32:35.622Z,444.00
2022-07-28T03:33:35.876Z,464.00
2022-07-28T03:34:36.146Z,484.00
2022-07-28T03:35:36.412Z,508.00
2022-07-28T03:36:36.678Z,528.00
2022-07-28T03:37:36.960Z,552.00
2022-07-28T03:38:37.218Z,572.00
2022-07-28T03:39:37.455Z,600.00
2022-07-28T03:40:37.715Z,620.00
2022-07-28T03:41:38.008Z,644.00
2022-07-28T03:42:38.274Z,668.00
2022-07-28T03:43:38.591Z,692.00
2022-07-28T03:44:38.772Z,716.00
2022-07-28T03:45:40.935Z,740.00
2022-07-28T03:46:39.335Z,764.00
2022-07-28T03:47:39.576Z,792.00
2022-07-28T03:48:39.879Z,812.00
2022-07-28T03:49:40.102Z,836.00
2022-07-28T03:50:40.358Z,856.00
2022-07-28T03:51:40.628Z,880.00
2022-07-28T03:52:40.877Z,904.00
2022-07-28T03:53:41.140Z,924.00
2022-07-28T03:54:41.398Z,948.00
2022-07-28T03:55:41.673Z,972.00
2022-07-28T03:56:41.941Z,996.00
2022-07-28T03:57:42.201Z,1020.00
2022-07-28T03:58:42.470Z,1040.00
2022-07-28T03:59:42.752Z,1064.00
2022-07-28T04:00:43.010Z,1088.00
2022-07-28T04:01:43.326Z,1112.00
2022-07-28T04:02:43.757Z,1132.00
2022-07-28T04:03:44.499Z,1156.00
2022-07-28T04:04:44.232Z,1176.00
2022-07-28T04:05:44.452Z,1196.00
2022-07-28T04:06:44.731Z,1220.00
2022-07-28T04:07:45.001Z,1240.00
2022-07-28T04:08:45.273Z,1264.00
2022-07-28T04:09:45.537Z,1284.00
2022-07-28T04:10:45.805Z,1304.00
2022-07-28T04:11:46.093Z,1324.00
2022-07-28T04:12:46.365Z,1344.00
2022-07-28T04:13:46.649Z,1368.00
2022-07-28T04:14:46.926Z,1388.00
2022-07-28T04:15:47.198Z,1408.00
2022-07-28T04:16:47.561Z,1428.00
2022-07-28T04:17:47.727Z,1448.00
2022-07-28T04:18:47.987Z,1468.00
2022-07-28T04:19:48.256Z,1484.00
2022-07-28T04:20:48.578Z,1504.00
2022-07-28T04:21:48.837Z,1520.00
2022-07-28T04:22:49.112Z,1540.00
2022-07-28T04:23:49.377Z,1556.00
2022-07-28T04:24:49.654Z,1572.00
2022-07-28T04:25:49.908Z,1592.00
2022-07-28T04:26:50.189Z,1608.00
2022-07-28T04:27:50.470Z,1632.00
2022-07-28T04:28:50.737Z,1648.00
2022-07-28T04:29:51.019Z,1668.00
2022-07-28T04:30:51.347Z,1684.00
2022-07-28T04:31:51.621Z,1704.00
2022-07-28T04:32:51.909Z,1724.00
2022-07-28T04:33:52.179Z,1744.00
2022-07-28T04:34:52.432Z,1764.00
2022-07-28T04:35:52.805Z,1788.00
2022-07-28T04:36:52.972Z,1816.00
2022-07-28T04:37:53.243Z,1840.00
2022-07-28T04:38:53.530Z,1860.00
2022-07-28T04:39:53.795Z,1888.00
2022-07-28T04:40:54.068Z,1912.00
2022-07-28T04:41:54.346Z,1936.00
2022-07-28T04:42:54.626Z,1956.00
2022-07-28T04:43:54.895Z,1980.00
2022-07-28T04:44:55.175Z,2008.00
2022-07-28T04:45:55.524Z,2028.00
2022-07-28T04:46:55.807Z,2060.00
2022-07-28T04:47:56.067Z,2084.00
2022-07-28T04:48:56.378Z,2116.00
2022-07-28T04:49:56.665Z,2144.00
2022-07-28T04:50:56.966Z,2172.00
2022-07-28T04:51:57.256Z,2208.00
2022-07-28T04:52:57.577Z,2244.00
2022-07-28T04:53:57.829Z,2288.00
2022-07-28T04:54:58.110Z,2324.00
2022-07-28T04:55:58.493Z,2368.00
2022-07-28T04:56:58.668Z,2408.00
2022-07-28T04:57:58.919Z,2452.00
2022-07-28T04:58:59.202Z,2512.00
2022-07-28T04:59:59.450Z,2592.00
2022-07-28T05:00:59.763Z,2712.00
2022-07-28T05:01:59.979Z,2876.00
2022-07-28T05:03:00.269Z,3120.00
2022-07-28T05:04:00.532Z,3460.00
2022-07-28T05:05:00.864Z,3828.00
2022-07-28T05:06:01.114Z,11352.00
2022-07-28T05:07:01.412Z,34912.00
2022-07-28T05:08:02.660Z,46080.00
2022-07-28T05:09:01.893Z,47360.00
2022-07-28T05:10:02.263Z,45056.00
2022-07-28T05:11:02.416Z,42528.00
2022-07-28T05:12:02.715Z,39168.00
2022-07-28T05:13:03.026Z,39200.00
2022-07-28T05:14:03.306Z,39136.00
2022-07-28T05:15:03.595Z,39968.00
2022-07-28T05:16:03.923Z,41344.00
2022-07-28T05:17:04.166Z,41184.00
2022-07-28T05:18:04.455Z,42304.00
2022-07-28T05:19:04.746Z,43168.00
2022-07-28T05:20:05.045Z,41088.00
2022-07-28T05:21:05.334Z,39296.00
2022-07-28T05:22:05.643Z,37984.00
2022-07-28T05:23:05.869Z,38752.00
2022-07-28T05:24:06.171Z,38432.00
2022-07-28T05:25:06.447Z,38304.00
2022-07-28T05:26:06.739Z,38976.00
2022-07-28T05:27:07.049Z,39072.00
2022-07-28T05:28:07.339Z,39168.00
2022-07-28T05:29:07.611Z,40736.00
2022-07-28T05:30:07.905Z,39616.00
2022-07-28T05:31:08.189Z,40544.00
2022-07-28T05:32:17.187Z,40352.00
2022-07-28T05:33:09.705Z,40000.00
2022-07-28T05:34:09.024Z,38880.00
2022-07-28T05:35:09.304Z,35200.00
2022-07-28T05:36:09.591Z,32448.00
2022-07-28T05:37:09.895Z,33248.00
2022-07-28T05:38:11.109Z,35872.00
2022-07-28T05:39:10.485Z,38464.00
2022-07-28T05:40:10.761Z,39808.00
2022-07-28T05:41:11.056Z,41152.00
2022-07-28T05:42:11.356Z,42400.00
2022-07-28T05:43:11.627Z,43616.00
2022-07-28T05:44:12.286Z,43104.00
2022-07-28T05:45:16.974Z,41280.00
2022-07-28T05:46:13.444Z,41152.00
2022-07-28T05:47:12.659Z,38496.00
2022-07-28T05:48:12.929Z,36224.00
2022-07-28T05:49:13.280Z,34112.00
2022-07-28T05:50:13.494Z,31072.00
2022-07-28T05:51:13.771Z,30144.00
2022-07-28T05:52:14.050Z,29760.00
2022-07-28T05:53:14.388Z,30304.00
2022-07-28T05:54:14.975Z,30848.00
2022-07-28T05:55:15.842Z,30720.00
2022-07-28T05:56:15.199Z,30400.00
2022-07-28T05:57:15.574Z,32960.00
2022-07-28T05:58:15.724Z,29792.00
2022-07-28T05:59:16.006Z,20512.00
2022-07-28T06:00:16.275Z,11952.00
2022-07-28T06:01:16.674Z,9924.00
2022-07-28T06:02:16.811Z,10148.00
2022-07-28T06:03:17.127Z,12084.00
2022-07-28T06:04:26.397Z,13696.00
2022-07-28T06:05:18.751Z,11160.00
2022-07-28T06:06:18.120Z,11552.00
2022-07-28T06:07:18.401Z,13440.00
2022-07-28T06:08:18.659Z,14688.00
2022-07-28T06:09:18.940Z,17664.00
2022-07-28T06:10:19.218Z,23008.00
2022-07-28T06:11:22.774Z,32448.00
2022-07-28T06:12:19.829Z,34464.00
2022-07-28T06:13:20.128Z,32096.00
2022-07-28T06:14:20.468Z,31392.00
2022-07-28T06:15:20.775Z,30208.00
2022-07-28T06:16:21.210Z,24416.00
2022-07-28T06:17:21.414Z,17824.00
2022-07-28T06:18:21.712Z,20896.00
2022-07-28T06:19:22.014Z,26912.00
2022-07-28T06:20:22.275Z,33120.00
2022-07-28T06:21:22.554Z,36032.00
2022-07-28T06:22:22.834Z,33440.00
2022-07-28T06:23:23.135Z,27296.00
2022-07-28T06:24:23.416Z,20768.00
2022-07-28T06:25:23.709Z,22368.00
2022-07-28T06:26:24.105Z,28512.00
2022-07-28T06:27:24.220Z,29504.00
2022-07-28T06:28:24.527Z,29600.00
2022-07-28T06:29:24.762Z,28736.00
2022-07-28T06:30:25.045Z,26688.00
2022-07-28T06:31:25.372Z,25568.00
2022-07-28T06:32:25.571Z,27296.00
2022-07-28T06:33:25.957Z,32160.00
2022-07-28T06:34:26.113Z,36096.00
2022-07-28T06:35:26.383Z,32320.00
2022-07-28T06:36:26.773Z,22112.00
2022-07-28T06:37:26.937Z,18080.00
2022-07-28T06:38:27.204Z,24256.00
2022-07-28T06:39:27.563Z,29184.00
2022-07-28T06:40:27.697Z,29664.00
2022-07-28T06:41:28.010Z,32704.00
2022-07-28T06:42:28.276Z,34880.00
2022-07-28T06:43:29.627Z,35968.00
2022-07-28T06:44:48.262Z,35392.00
2022-07-28T06:45:30.090Z,34912.00
2022-07-28T06:46:29.489Z,34016.00
2022-07-28T06:47:29.759Z,31552.00
2022-07-28T06:48:30.070Z,29888.00
2022-07-28T06:49:30.390Z,23520.00
2022-07-28T06:50:30.560Z,13888.00
2022-07-28T06:51:30.899Z,7832.00
2022-07-28T06:52:31.154Z,7356.00
2022-07-28T06:53:33.762Z,6836.00
2022-07-28T06:54:31.702Z,6584.00
2022-07-28T06:55:35.343Z,6152.00
2022-07-28T06:56:32.223Z,6124.00
2022-07-28T06:57:33.569Z,5980.00
2022-07-28T06:58:32.813Z,5788.00
2022-07-28T06:59:33.074Z,5564.00
2022-07-28T07:00:33.466Z,5344.00
2022-07-28T07:01:33.735Z,5040.00
2022-07-28T07:02:33.876Z,4616.00
2022-07-28T07:03:34.189Z,4440.00
2022-07-28T07:04:34.589Z,4120.00
2022-07-28T07:05:34.810Z,3844.00
2022-07-28T07:06:35.080Z,3596.00
2022-07-28T07:07:39.711Z,3352.00
2022-07-28T07:08:36.580Z,3172.00
2022-07-28T07:09:35.938Z,3104.00
2022-07-28T07:10:36.199Z,3236.00
2022-07-28T07:11:36.479Z,3248.00
2022-07-28T07:12:36.765Z,3220.00
2022-07-28T07:13:37.090Z,3276.00
2022-07-28T07:14:37.335Z,3240.00
2022-07-28T07:15:37.613Z,3240.00
2022-07-28T07:16:37.918Z,3308.00
2022-07-28T07:17:38.178Z,3432.00
2022-07-28T07:18:38.436Z,3408.00
2022-07-28T07:19:38.708Z,3320.00
2022-07-28T07:20:38.992Z,3336.00
2022-07-28T07:21:39.283Z,3460.00
2022-07-28T07:22:39.544Z,3264.00
2022-07-28T07:23:39.818Z,2988.00
2022-07-28T07:24:40.082Z,3172.00
2022-07-28T07:25:40.339Z,3432.00
2022-07-28T07:26:40.617Z,3208.00
2022-07-28T07:27:40.886Z,3488.00
2022-07-28T07:28:41.138Z,3912.00
2022-07-28T07:29:41.397Z,4496.00
2022-07-28T07:30:41.649Z,4464.00
2022-07-28T07:31:41.981Z,4532.00
2022-07-28T07:32:42.252Z,4404.00
2022-07-28T07:33:42.510Z,4524.00
2022-07-28T07:34:42.760Z,4660.00
2022-07-28T07:35:43.041Z,4936.00
2022-07-28T07:36:43.321Z,4608.00
2022-07-28T07:37:43.571Z,4860.00
2022-07-28T07:38:43.864Z,5288.00
2022-07-28T07:39:44.139Z,4932.00
2022-07-28T07:40:44.423Z,4852.00
2022-07-28T07:41:44.702Z,4332.00
2022-07-28T07:42:45.036Z,4404.00
2022-07-28T07:43:47.755Z,5116.00
2022-07-28T07:44:50.209Z,4756.00
2022-07-28T07:45:45.987Z,4812.00
2022-07-28T07:46:46.441Z,5340.00
2022-07-28T07:47:47.466Z,6208.00
2022-07-28T07:48:46.835Z,6632.00
2022-07-28T07:49:47.111Z,6308.00
2022-07-28T07:50:51.835Z,6168.00
2022-07-28T07:51:48.648Z,6284.00
2022-07-28T07:52:47.870Z,6144.00
2022-07-28T07:53:48.109Z,5988.00
2022-07-28T07:54:48.370Z,5816.00
2022-07-28T07:55:48.638Z,5680.00
2022-07-28T07:56:48.909Z,5872.00
2022-07-28T07:57:49.213Z,6048.00
2022-07-28T07:58:53.620Z,5684.00
2022-07-28T07:59:50.810Z,5112.00
2022-07-28T08:00:50.111Z,4808.00
2022-07-28T08:01:50.418Z,4324.00
2022-07-28T08:02:50.643Z,4276.00
2022-07-28T08:03:50.885Z,4196.00
2022-07-28T08:04:52.189Z,4344.00
2022-07-28T08:05:51.555Z,4656.00
2022-07-28T08:06:51.823Z,5548.00
2022-07-28T08:07:52.074Z,5480.00
2022-07-28T08:08:52.369Z,5452.00
2022-07-28T08:09:52.625Z,5492.00
2022-07-28T08:10:52.876Z,5588.00
2022-07-28T08:11:53.158Z,5644.00
2022-07-28T08:12:53.404Z,5312.00
2022-07-28T08:13:53.682Z,5436.00
2022-07-28T08:14:53.937Z,5836.00
2022-07-28T08:15:54.246Z,6356.00
2022-07-28T08:16:54.487Z,6496.00
2022-07-28T08:17:54.770Z,6324.00
2022-07-28T08:18:55.021Z,6164.00
2022-07-28T08:19:55.301Z,6304.00
2022-07-28T08:20:55.566Z,6264.00
2022-07-28T08:21:55.866Z,6240.00
2022-07-28T08:22:56.130Z,5688.00
2022-07-28T08:23:56.414Z,5432.00
2022-07-28T08:24:56.692Z,5244.00
2022-07-28T08:25:56.964Z,4968.00
2022-07-28T08:26:57.253Z,4552.00
2022-07-28T08:27:57.513Z,4316.00
2022-07-28T08:28:57.806Z,4784.00
2022-07-28T08:29:58.054Z,5248.00
2022-07-28T08:30:58.394Z,5540.00
2022-07-28T08:31:58.684Z,6020.00
2022-07-28T08:32:58.944Z,6720.00
2022-07-28T08:33:59.206Z,7004.00
2022-07-28T08:35:29.970Z,7552.00
2022-07-28T08:36:00.824Z,7760.00
2022-07-28T08:37:00.155Z,7416.00
2022-07-28T08:38:00.399Z,7136.00
2022-07-28T08:39:00.659Z,6268.00
2022-07-28T08:40:00.920Z,6136.00
2022-07-28T08:41:01.177Z,5688.00
2022-07-28T08:42:01.448Z,5488.00
2022-07-28T08:43:01.703Z,5404.00
2022-07-28T08:44:01.951Z,5416.00
2022-07-28T08:45:02.220Z,5488.00
2022-07-28T08:46:02.562Z,5492.00
2022-07-28T08:47:02.788Z,5444.00
2022-07-28T08:48:10.274Z,5440.00
2022-07-28T08:49:04.308Z,5092.00
2022-07-28T08:50:03.513Z,4632.00
2022-07-28T08:51:03.763Z,4508.00
2022-07-28T08:52:04.024Z,4688.00
2022-07-28T08:53:04.303Z,4768.00
2022-07-28T08:54:04.574Z,5056.00
2022-07-28T08:55:04.815Z,5336.00
2022-07-28T08:56:05.076Z,5280.00
2022-07-28T08:57:05.339Z,5376.00
2022-07-28T08:58:05.584Z,5068.00
2022-07-28T08:59:05.857Z,5132.00
2022-07-28T09:00:06.140Z,5196.00
2022-07-28T09:01:06.393Z,5304.00
2022-07-28T09:02:06.719Z,5456.00
2022-07-28T09:03:07.012Z,5648.00
2022-07-28T09:04:07.310Z,5788.00
2022-07-28T09:05:07.567Z,5944.00
2022-07-28T09:06:07.831Z,6012.00
2022-07-28T09:07:08.091Z,5992.00
2022-07-28T09:08:08.372Z,6120.00
2022-07-28T09:09:08.621Z,6252.00
2022-07-28T09:10:08.880Z,6364.00
2022-07-28T09:11:09.156Z,6400.00
2022-07-28T09:12:09.412Z,6404.00
2022-07-28T09:13:09.709Z,6524.00
2022-07-28T09:14:10.026Z,6736.00
2022-07-28T09:15:10.264Z,6968.00
2022-07-28T09:16:10.566Z,7004.00
2022-07-28T09:17:10.856Z,6936.00
2022-07-28T09:18:11.109Z,6676.00
2022-07-28T09:19:11.356Z,6368.00
2022-07-28T09:20:11.802Z,6244.00
2022-07-28T09:21:11.944Z,5988.00
2022-07-28T09:22:12.255Z,5656.00
2022-07-28T09:23:42.158Z,5348.00
2022-07-28T09:24:14.081Z,4956.00
2022-07-28T09:25:13.175Z,4892.00
2022-07-28T09:26:13.467Z,4776.00
2022-07-28T09:27:13.801Z,4804.00
2022-07-28T09:28:14.063Z,4684.00
2022-07-28T09:29:14.325Z,4704.00
2022-07-28T09:30:14.605Z,4540.00
2022-07-28T09:31:14.894Z,4440.00
2022-07-28T09:32:15.193Z,4316.00
2022-07-28T09:33:42.475Z,4252.00
2022-07-28T09:34:17.168Z,4252.00
2022-07-28T09:35:16.004Z,4292.00
2022-07-28T09:36:16.453Z,4460.00
2022-07-28T09:37:16.634Z,4564.00
2022-07-28T09:38:16.747Z,4504.00
2022-07-28T09:39:17.014Z,4340.00
2022-07-28T09:40:17.284Z,4272.00
2022-07-28T09:41:17.557Z,4468.00
2022-07-28T09:42:17.826Z,4492.00
2022-07-28T09:43:18.125Z,4440.00
2022-07-28T09:44:18.397Z,4364.00
2022-07-28T09:45:23.689Z,4252.00
2022-07-28T09:46:20.165Z,4188.00
2022-07-28T09:47:19.462Z,3948.00
2022-07-28T09:48:19.637Z,4016.00
2022-07-28T09:49:21.931Z,3880.00
2022-07-28T09:50:21.121Z,3748.00
2022-07-28T09:51:20.307Z,3384.00
2022-07-28T09:52:20.569Z,3260.00
2022-07-28T09:53:20.832Z,3176.00
2022-07-28T09:54:21.071Z,3216.00
2022-07-28T09:55:21.332Z,3432.00
2022-07-28T09:56:21.593Z,3296.00
2022-07-28T09:57:22.860Z,3164.00
2022-07-28T09:58:22.193Z,3112.00
2022-07-28T09:59:23.946Z,3096.00
2022-07-28T10:00:22.815Z,3196.00
2022-07-28T10:01:24.412Z,3404.00
2022-07-28T10:02:23.533Z,3460.00
2022-07-28T10:03:23.706Z,3420.00
2022-07-28T10:04:23.967Z,3528.00
2022-07-28T10:05:24.234Z,3788.00
2022-07-28T10:06:24.475Z,3844.00
2022-07-28T10:07:24.737Z,3780.00
2022-07-28T10:08:24.986Z,3900.00
2022-07-28T10:09:25.237Z,4180.00
2022-07-28T10:10:25.586Z,4264.00
2022-07-28T10:11:25.849Z,4300.00
2022-07-28T10:12:26.122Z,4336.00
2022-07-28T10:13:26.374Z,4468.00
2022-07-28T10:14:26.648Z,4612.00
2022-07-28T10:15:26.921Z,4716.00
2022-07-28T10:16:27.208Z,4824.00
2022-07-28T10:17:27.493Z,4904.00
2022-07-28T10:18:27.761Z,5012.00
2022-07-28T10:19:28.040Z,5192.00
2022-07-28T10:20:28.304Z,5264.00
2022-07-28T10:21:28.545Z,5196.00
2022-07-28T10:22:28.885Z,5004.00
2022-07-28T10:23:29.154Z,4848.00
2022-07-28T10:24:29.470Z,4736.00
2022-07-28T10:25:29.723Z,4664.00
2022-07-28T10:26:30.016Z,4656.00
2022-07-28T10:27:30.292Z,4628.00
2022-07-28T10:28:30.557Z,4592.00
2022-07-28T10:29:30.817Z,4556.00
2022-07-28T10:30:31.110Z,4556.00
2022-07-28T10:31:31.468Z,4564.00
2022-07-28T10:32:31.784Z,4580.00
2022-07-28T10:33:32.008Z,4576.00
2022-07-28T10:34:32.259Z,4668.00
2022-07-28T10:35:32.558Z,4740.00
2022-07-28T10:36:33.774Z,4760.00
2022-07-28T10:37:33.099Z,4744.00
2022-07-28T10:38:33.360Z,4716.00
2022-07-28T10:39:33.630Z,4712.00
2022-07-28T10:40:33.893Z,4664.00
2022-07-28T10:41:34.141Z,4632.00
2022-07-28T10:42:34.412Z,4600.00
2022-07-28T10:43:34.672Z,4592.00
2022-07-28T10:44:34.932Z,4520.00
2022-07-28T10:46:03.328Z,4508.00
2022-07-28T10:46:36.485Z,4452.00
2022-07-28T10:47:36.415Z,4380.00
2022-07-28T10:48:36.113Z,4312.00
2022-07-28T10:49:36.228Z,4172.00
2022-07-28T10:50:36.518Z,4184.00
2022-07-28T10:51:48.705Z,4276.00
2022-07-28T10:52:47.329Z,4284.00
2022-07-28T10:53:38.288Z,4220.00
2022-07-28T10:54:37.622Z,4340.00
2022-07-28T10:55:37.780Z,4436.00
2022-07-28T10:56:38.093Z,4492.00
2022-07-28T10:57:38.349Z,4532.00
2022-07-28T10:58:38.588Z,4580.00
2022-07-28T10:59:38.860Z,4588.00
2022-07-28T11:00:55.050Z,4612.00
2022-07-28T11:01:49.781Z,4684.00
2022-07-28T11:02:40.815Z,4740.00
2022-07-28T11:03:40.576Z,4788.00
2022-07-28T11:04:40.274Z,4772.00
2022-07-28T11:05:40.547Z,4744.00
2022-07-28T11:06:40.812Z,4716.00
2022-07-28T11:07:41.085Z,4680.00
2022-07-28T11:08:41.333Z,4620.00
2022-07-28T11:09:41.598Z,4612.00
2022-07-28T11:10:41.924Z,4568.00
2022-07-28T11:11:42.174Z,4544.00
2022-07-28T11:12:42.445Z,4528.00
2022-07-28T11:13:43.644Z,4576.00
2022-07-28T11:14:42.966Z,4556.00
2022-07-28T11:15:43.302Z,4524.00
2022-07-28T11:16:43.570Z,4460.00
2022-07-28T11:17:43.847Z,4412.00
2022-07-28T11:18:44.078Z,4364.00
2022-07-28T11:20:16.473Z,4300.00
2022-07-28T11:20:45.677Z,4248.00
2022-07-28T11:21:46.255Z,4212.00
2022-07-28T11:22:46.439Z,4184.00
2022-07-28T11:23:46.454Z,4124.00
2022-07-28T11:24:45.908Z,4100.00
2022-07-28T11:25:46.160Z,4064.00
2022-07-28T11:26:46.431Z,4028.00
2022-07-28T11:27:46.702Z,3964.00
2022-07-28T11:28:46.947Z,3892.00
2022-07-28T11:29:47.212Z,3852.00
2022-07-28T11:30:47.513Z,3832.00
2022-07-28T11:31:47.766Z,3800.00
2022-07-28T11:32:48.025Z,3784.00
2022-07-28T11:33:48.275Z,3756.00
2022-07-28T11:34:48.525Z,3736.00
2022-07-28T11:35:48.804Z,3724.00
2022-07-28T11:36:49.058Z,3696.00
2022-07-28T11:37:49.383Z,3704.00
2022-07-28T11:38:49.637Z,3720.00
2022-07-28T11:39:49.939Z,3740.00
2022-07-28T11:40:50.126Z,3800.00
2022-07-28T11:41:50.433Z,3844.00
2022-07-28T11:42:50.737Z,3868.00
2022-07-28T11:43:51.090Z,3876.00
2022-07-28T11:44:51.279Z,3876.00
2022-07-28T11:45:56.036Z,3856.00
2022-07-28T11:46:52.554Z,3832.00
2022-07-28T11:47:52.221Z,3800.00
2022-07-28T11:48:52.599Z,3744.00
2022-07-28T11:49:52.825Z,3704.00
2022-07-28T11:50:53.073Z,3652.00
2022-07-28T11:51:53.306Z,3612.00
2022-07-28T11:52:53.575Z,3540.00
2022-07-28T11:53:53.890Z,3460.00
2022-07-28T11:54:54.105Z,3372.00
2022-07-28T11:56:02.117Z,3288.00
2022-07-28T11:56:55.724Z,3208.00
2022-07-28T11:57:55.084Z,3132.00
2022-07-28T11:58:55.349Z,3048.00
2022-07-28T11:59:55.618Z,2988.00
2022-07-28T12:00:56.822Z,2916.00
2022-07-28T12:01:56.119Z,2844.00
2022-07-28T12:02:56.430Z,2772.00
2022-07-28T12:03:58.982Z,2684.00
2022-07-28T12:04:56.909Z,2568.00
2022-07-28T12:05:57.195Z,2468.00
2022-07-28T12:06:57.421Z,2400.00
2022-07-28T12:07:57.703Z,2308.00
2022-07-28T12:08:57.955Z,2288.00
2022-07-28T12:09:58.212Z,2260.00
2022-07-28T12:10:58.472Z,2220.00
2022-07-28T12:11:58.741Z,2244.00
2022-07-28T12:12:59.125Z,2244.00
2022-07-28T12:13:59.243Z,2184.00
2022-07-28T12:15:04.762Z,2192.00
2022-07-28T12:16:00.834Z,2248.00
2022-07-28T12:17:00.249Z,2272.00
2022-07-28T12:18:00.420Z,2288.00
2022-07-28T12:19:00.715Z,2284.00
2022-07-28T12:20:00.957Z,2348.00
2022-07-28T12:21:05.054Z,2352.00
2022-07-28T12:22:01.467Z,2384.00
2022-07-28T12:23:01.825Z,2428.00
2022-07-28T12:24:02.119Z,2496.00